Time;durP1;ratioP1;P1;durP2;ratioP2;P2;SDS_P1;SDS_P2;PMS_P1;PMS_P2;Temp;Humidity;BMP_temperature;BMP_pressure;BME280_temperature;BME280_humidity;BME280_pressure;Samples;Min_cycle;Max_cycle;Signal;HPM_P1;HPM_P2
2024/02/28 00:01:52;;;;;;;21.73;12.13;;;;;;;1.38;100.00;101362.69;5081211;28;20776;-80
2024/02/28 00:04:25;;;;;;;22.73;12.55;;;;;;;1.46;100.00;101360.63;5073274;28;20431;-80
2024/02/28 00:06:53;;;;;;;22.43;12.30;;;;;;;1.39;100.00;101361.66;5072978;28;20910;-80
2024/02/28 00:09:26;;;;;;;21.45;12.45;;;;;;;1.34;100.00;101359.56;5076437;28;20427;-79
2024/02/28 00:11:59;;;;;;;22.70;12.10;;;;;;;1.60;100.00;101358.84;5058312;28;20543;-80
2024/02/28 00:14:33;;;;;;;21.13;12.35;;;;;;;1.59;100.00;101354.50;5066475;28;20432;-80
2024/02/28 00:17:07;;;;;;;21.00;11.82;;;;;;;1.47;100.00;101356.09;5054995;28;20971;-80
2024/02/28 00:19:42;;;;;;;23.65;12.68;;;;;;;1.55;100.00;101355.94;5057541;28;20426;-80
2024/02/28 00:22:15;;;;;;;20.88;12.43;;;;;;;1.46;100.00;101354.44;5044775;28;20446;-80
2024/02/28 00:24:48;;;;;;;20.45;11.90;;;;;;;1.52;100.00;101350.97;5073889;28;20425;-80
2024/02/28 00:27:17;;;;;;;20.45;11.77;;;;;;;1.57;100.00;101353.84;5057271;28;20423;-80
2024/02/28 00:29:50;;;;;;;21.65;12.68;;;;;;;1.47;100.00;101350.75;5060420;28;20435;-80
2024/02/28 00:32:25;;;;;;;22.27;12.48;;;;;;;1.62;100.00;101347.91;5060224;28;20936;-80
2024/02/28 00:34:58;;;;;;;22.08;12.40;;;;;;;1.51;100.00;101355.50;5075480;28;20827;-80
2024/02/28 00:37:31;;;;;;;20.88;12.15;;;;;;;1.47;100.00;101354.25;5081355;28;20421;-81
2024/02/28 00:40:05;;;;;;;20.00;11.75;;;;;;;1.44;100.00;101345.78;5075936;28;20418;-80
2024/02/28 00:42:38;;;;;;;20.30;11.87;;;;;;;1.48;100.00;101347.03;5073174;28;20420;-80
2024/02/28 00:45:09;;;;;;;21.98;12.00;;;;;;;1.45;100.00;101339.38;5079278;28;20418;-80
2024/02/28 00:47:44;;;;;;;23.10;12.00;;;;;;;1.52;100.00;101340.25;5065367;28;20420;-80
2024/02/28 00:50:12;;;;;;;21.02;12.00;;;;;;;1.58;100.00;101352.00;5076820;28;20412;-80
2024/02/28 00:52:45;;;;;;;19.17;11.60;;;;;;;1.51;100.00;101352.81;5066913;28;20422;-80
2024/02/28 00:55:13;;;;;;;20.02;11.98;;;;;;;1.54;100.00;101354.25;5078635;28;20934;-80
2024/02/28 00:57:47;;;;;;;21.30;11.70;;;;;;;1.55;100.00;101347.03;5060800;28;20464;-80
2024/02/28 01:00:20;;;;;;;19.48;11.18;;;;;;;1.54;100.00;101346.22;5056350;28;20877;-80
2024/02/28 01:02:55;;;;;;;19.80;11.68;;;;;;;1.57;100.00;101336.94;5078997;28;20429;-80
2024/02/28 01:05:28;;;;;;;19.70;11.63;;;;;;;1.48;100.00;101339.00;5059214;28;20425;-80
2024/02/28 01:08:02;;;;;;;19.08;11.40;;;;;;;1.41;100.00;101338.13;5057747;28;21346;-80
2024/02/28 01:10:36;;;;;;;19.75;11.38;;;;;;;1.39;100.00;101332.97;5059918;28;21023;-80
2024/02/28 01:13:04;;;;;;;19.75;11.95;;;;;;;1.45;100.00;101332.19;5076698;28;20417;-80
2024/02/28 01:15:33;;;;;;;19.33;11.77;;;;;;;1.54;100.00;101327.44;5057920;28;20425;-80
2024/02/28 01:18:07;;;;;;;18.52;11.52;;;;;;;1.47;100.00;101326.59;5076857;28;20766;-80
2024/02/28 01:20:40;;;;;;;19.17;11.30;;;;;;;1.42;100.00;101329.88;5079198;28;20421;-81
2024/02/28 01:23:13;;;;;;;20.45;12.10;;;;;;;1.47;100.00;101323.91;5065482;28;20422;-80
2024/02/28 01:25:47;;;;;;;20.80;11.30;;;;;;;1.48;100.00;101320.22;5073047;28;20870;-81
2024/02/28 01:28:15;;;;;;;20.15;11.70;;;;;;;1.47;100.00;101330.09;5064147;28;20418;-80
2024/02/28 01:30:49;;;;;;;21.55;12.13;;;;;;;1.40;100.00;101320.41;5056360;28;20431;-80
2024/02/28 01:33:18;;;;;;;20.42;11.63;;;;;;;1.42;100.00;101324.50;5076602;28;20423;-80
2024/02/28 01:35:52;;;;;;;18.00;10.90;;;;;;;1.38;100.00;101317.91;5057240;28;20427;-81
2024/02/28 01:38:26;;;;;;;20.90;11.82;;;;;;;1.44;100.00;101325.16;5076574;28;21269;-80
2024/02/28 01:40:59;;;;;;;21.08;11.45;;;;;;;1.38;100.00;101325.13;5064993;28;20426;-81
2024/02/28 01:43:28;;;;;;;21.10;11.65;;;;;;;1.31;100.00;101320.59;5076023;28;20419;-80
2024/02/28 01:46:04;;;;;;;21.52;11.68;;;;;;;1.33;100.00;101317.72;5061124;28;20428;-80
2024/02/28 01:48:39;;;;;;;21.00;11.95;;;;;;;1.41;100.00;101300.56;5074261;28;20919;-80
2024/02/28 01:51:13;;;;;;;18.98;11.35;;;;;;;1.39;100.00;101303.47;5060813;28;20770;-80
2024/02/28 01:53:41;;;;;;;20.57;12.13;;;;;;;1.43;100.00;101311.94;5084725;28;20400;-80
2024/02/28 01:56:16;;;;;;;20.80;11.82;;;;;;;1.38;100.00;101311.72;5079511;28;20433;-80
2024/02/28 01:58:50;;;;;;;20.13;11.70;;;;;;;1.36;100.00;101302.00;5069981;28;20940;-80
2024/02/28 02:01:18;;;;;;;20.17;12.23;;;;;;;1.35;100.00;101302.22;5078792;28;20426;-80
2024/02/28 02:03:54;;;;;;;20.70;11.48;;;;;;;1.32;100.00;101308.81;5069017;28;20950;-80
2024/02/28 02:06:27;;;;;;;20.80;12.10;;;;;;;1.36;100.00;101301.19;5063068;28;20422;-80
2024/02/28 02:09:02;;;;;;;19.92;11.82;;;;;;;1.39;100.00;101300.78;5079255;28;20422;-80
2024/02/28 02:11:36;;;;;;;21.48;11.93;;;;;;;1.37;100.00;101297.50;5080213;28;20767;-80
2024/02/28 02:14:09;;;;;;;19.45;11.57;;;;;;;1.37;100.00;101308.22;5084814;28;20416;-80
2024/02/28 02:16:37;;;;;;;20.50;11.40;;;;;;;1.39;100.00;101303.47;5062912;28;20417;-79
2024/02/28 02:19:13;;;;;;;20.08;11.93;;;;;;;1.31;100.00;101303.66;5059789;28;20441;-81
2024/02/28 02:21:49;;;;;;;20.17;11.63;;;;;;;1.29;100.00;101309.22;5078750;28;20431;-80
2024/02/28 02:24:24;;;;;;;20.17;11.60;;;;;;;1.36;100.00;101309.25;5078810;28;21189;-80
2024/02/28 02:26:59;;;;;;;19.57;11.33;;;;;;;1.41;100.00;101300.56;5065250;28;20445;-80
2024/02/28 02:29:28;;;;;;;20.42;11.55;;;;;;;1.35;100.00;101291.50;5063684;28;20431;-81
2024/02/28 02:32:02;;;;;;;20.65;12.40;;;;;;;1.31;100.00;101291.09;5069525;28;20425;-80
2024/02/28 02:34:35;;;;;;;20.50;12.10;;;;;;;1.31;100.00;101292.94;5079055;28;20536;-80
2024/02/28 02:37:08;;;;;;;20.65;12.00;;;;;;;1.38;100.00;101293.75;5081504;28;20905;-80
2024/02/28 02:39:43;;;;;;;23.35;12.02;;;;;;;1.29;100.00;101297.69;5065869;28;21080;-80
2024/02/28 02:42:17;;;;;;;22.35;12.30;;;;;;;1.33;100.00;101293.56;5081825;28;20420;-80
2024/02/28 02:44:45;;;;;;;21.98;12.40;;;;;;;1.46;100.00;101293.56;5068015;28;20434;-80
2024/02/28 02:47:18;;;;;;;20.98;11.95;;;;;;;1.39;100.00;101290.06;5064486;28;20429;-81
2024/02/28 02:49:52;;;;;;;18.80;11.35;;;;;;;1.34;100.00;101301.41;5063277;28;20433;-80
2024/02/28 02:52:25;;;;;;;20.65;12.10;;;;;;;1.52;100.00;101300.00;5071062;28;20434;-80
2024/02/28 02:55:00;;;;;;;19.90;11.30;;;;;;;1.36;100.00;101323.47;5077569;28;20450;-80
2024/02/28 02:57:34;;;;;;;17.90;10.52;;;;;;;1.38;100.00;101328.63;5081142;28;20460;-80
2024/02/28 03:00:02;;;;;;;19.45;11.13;;;;;;;1.42;100.00;101327.19;5081877;28;21128;-80
2024/02/28 03:02:38;;;;;;;19.60;11.18;;;;;;;1.45;100.00;101331.31;5060284;28;20424;-80
2024/02/28 03:05:07;;;;;;;18.60;10.82;;;;;;;1.25;100.00;101316.03;5060958;28;20434;-80
2024/02/28 03:07:40;;;;;;;21.92;11.50;;;;;;;1.14;100.00;101324.66;5064980;28;20414;-80
2024/02/28 03:10:15;;;;;;;18.05;10.80;;;;;;;1.25;100.00;101332.09;5082227;28;20442;-80
2024/02/28 03:12:48;;;;;;;20.15;11.10;;;;;;;1.17;100.00;101332.28;5080470;28;20488;-80
2024/02/28 03:15:16;;;;;;;20.83;12.02;;;;;;;1.19;100.00;101324.88;5060158;28;20422;-80
2024/02/28 03:17:49;;;;;;;21.05;11.60;;;;;;;1.25;100.00;101344.69;5078149;28;20877;-80
2024/02/28 03:20:23;;;;;;;20.60;11.82;;;;;;;1.19;100.00;101341.78;5059589;28;20419;-80
2024/02/28 03:22:57;;;;;;;19.98;11.70;;;;;;;1.32;100.00;101348.22;5069580;28;20415;-80
2024/02/28 03:25:28;;;;;;;21.08;11.45;;;;;;;1.15;100.00;101351.25;5063203;28;20434;-80
2024/02/28 03:28:01;;;;;;;19.10;10.75;;;;;;;1.02;100.00;101349.38;5081491;28;20795;-80
2024/02/28 03:30:35;;;;;;;21.27;11.32;;;;;;;1.01;100.00;101360.28;5058142;28;20420;-80
2024/02/28 03:33:09;;;;;;;19.38;11.10;;;;;;;1.01;100.00;101360.28;5067442;28;20423;-80
2024/02/28 03:35:37;;;;;;;20.48;12.00;;;;;;;1.07;100.00;101351.44;5074338;28;20418;-80
2024/02/28 03:38:05;;;;;;;19.73;11.60;;;;;;;1.13;100.00;101363.22;5058021;28;20443;-80
2024/02/28 03:40:35;;;;;;;21.17;12.32;;;;;;;1.05;100.00;101363.38;5078511;28;21322;-80
2024/02/28 03:43:08;;;;;;;25.27;14.05;;;;;;;1.01;100.00;101361.09;5077201;28;20429;-80
2024/02/28 03:45:38;;;;;;;23.08;13.57;;;;;;;0.96;100.00;101362.72;5062025;28;20418;-80
2024/02/28 03:48:11;;;;;;;24.00;13.65;;;;;;;1.03;100.00;101358.22;5075437;28;20424;-80
2024/02/28 03:50:39;;;;;;;23.90;13.98;;;;;;;1.01;100.00;101355.75;5080651;28;20413;-79
2024/02/28 03:53:12;;;;;;;22.67;13.77;;;;;;;1.06;100.00;101362.34;5061113;28;20412;-80
2024/02/28 03:55:47;;;;;;;23.42;13.75;;;;;;;0.94;100.00;101370.13;5074196;28;20420;-80
2024/02/28 03:58:15;;;;;;;23.53;14.10;;;;;;;0.94;100.00;101368.28;5060529;28;20425;-81
2024/02/28 04:00:48;;;;;;;26.58;15.13;;;;;;;0.89;100.00;101369.91;5078142;28;20414;-80
2024/02/28 04:03:16;;;;;;;26.97;15.43;;;;;;;0.94;100.00;101364.75;5059285;28;20843;-79
2024/02/28 04:05:44;;;;;;;29.13;16.07;;;;;;;0.87;100.00;101358.56;5081062;28;20509;-80
2024/02/28 04:08:18;;;;;;;25.45;15.38;;;;;;;0.92;100.00;101362.28;5059429;28;20924;-80
2024/02/28 04:10:49;;;;;;;27.13;16.40;;;;;;;0.88;100.00;101361.03;5060094;28;21005;-79
2024/02/28 04:13:17;;;;;;;27.95;16.08;;;;;;;0.89;100.00;101360.00;5076366;28;20416;-80
2024/02/28 04:15:50;;;;;;;29.17;16.42;;;;;;;0.91;100.00;101349.94;5079170;28;20472;-80
2024/02/28 04:18:23;;;;;;;32.05;17.50;;;;;;;0.94;100.00;101362.09;5075230;28;20870;-80
2024/02/28 04:20:52;;;;;;;31.95;17.15;;;;;;;0.84;100.00;101355.25;5063603;28;20431;-80
2024/02/28 04:23:25;;;;;;;32.10;17.70;;;;;;;0.84;100.00;101355.25;5078637;28;20429;-80
2024/02/28 04:25:59;;;;;;;30.75;16.60;;;;;;;0.81;100.00;101355.63;5082280;28;20418;-80
2024/02/28 04:28:32;;;;;;;30.73;16.67;;;;;;;0.80;100.00;101358.50;5065244;28;20416;-80
2024/02/28 04:31:06;;;;;;;29.58;16.65;;;;;;;0.87;100.00;101361.22;5077252;28;20417;-80
2024/02/28 04:33:35;;;;;;;29.33;16.08;;;;;;;0.85;100.00;101351.53;5059884;28;20749;-80
2024/02/28 04:36:08;;;;;;;27.77;15.57;;;;;;;0.92;100.00;101358.78;5078535;28;20422;-80
2024/02/28 04:38:41;;;;;;;28.88;16.30;;;;;;;0.85;100.00;101348.03;5076310;28;20417;-79
2024/02/28 04:41:16;;;;;;;27.02;15.05;;;;;;;0.77;100.00;101354.38;5079177;28;20757;-80
2024/02/28 04:43:44;;;;;;;28.58;16.20;;;;;;;0.85;100.00;101358.75;5075854;28;20415;-80
2024/02/28 04:46:12;;;;;;;28.95;15.73;;;;;;;0.86;100.00;101357.75;5060359;28;20420;-80
2024/02/28 04:48:45;;;;;;;26.83;14.90;;;;;;;0.83;100.00;101347.41;5057138;28;20423;-80
2024/02/28 04:51:18;;;;;;;26.40;15.10;;;;;;;0.91;100.00;101349.94;5064523;28;20429;-80
2024/02/28 04:53:51;;;;;;;27.58;15.23;;;;;;;0.94;100.00;101351.38;5078909;28;20422;-80
2024/02/28 04:56:26;;;;;;;30.20;15.67;;;;;;;0.85;100.00;101353.41;5076593;28;20412;-80
2024/02/28 04:58:59;;;;;;;26.75;14.27;;;;;;;0.96;100.00;101350.16;5072053;28;20431;-80
2024/02/28 05:01:28;;;;;;;28.20;15.18;;;;;;;0.92;100.00;101350.75;5059890;28;20431;-80
2024/02/28 05:04:02;;;;;;;26.60;15.13;;;;;;;0.84;100.00;101355.25;5063422;28;20431;-80
2024/02/28 05:06:35;;;;;;;28.90;15.38;;;;;;;0.89;100.00;101351.97;5076581;28;20426;-80
2024/02/28 05:09:08;;;;;;;26.40;15.15;;;;;;;0.91;100.00;101362.50;5077049;28;20575;-80
2024/02/28 05:11:38;;;;;;;26.30;14.60;;;;;;;0.98;100.00;101364.19;5061121;28;20420;-80
2024/02/28 05:14:11;;;;;;;28.98;15.50;;;;;;;0.95;100.00;101363.75;5065817;28;20421;-80
2024/02/28 05:16:39;;;;;;;28.77;15.77;;;;;;;0.98;100.00;101363.34;5074417;28;20420;-80
2024/02/28 05:19:13;;;;;;;30.70;15.07;;;;;;;0.95;100.00;101363.75;5075532;28;20433;-80
2024/02/28 05:21:48;;;;;;;29.13;15.63;;;;;;;0.96;100.00;101362.72;5075363;28;20414;-80
2024/02/28 05:24:21;;;;;;;30.00;16.15;;;;;;;0.93;100.00;101368.50;5079602;28;20414;-80
2024/02/28 05:26:55;;;;;;;29.80;16.48;;;;;;;0.93;100.00;101368.50;5081452;28;20425;-80
2024/02/28 05:29:28;;;;;;;29.65;15.85;;;;;;;0.91;100.00;101368.69;5076011;28;20423;-80
2024/02/28 05:31:57;;;;;;;31.85;16.80;;;;;;;0.91;100.00;101366.03;5059762;28;20432;-80
2024/02/28 05:34:30;;;;;;;29.38;16.42;;;;;;;0.89;100.00;101364.56;5071046;28;20986;-80
2024/02/28 05:37:03;;;;;;;28.48;16.17;;;;;;;0.85;100.00;101359.56;5078970;28;20426;-80
2024/02/28 05:39:36;;;;;;;28.35;15.80;;;;;;;0.71;100.00;101367.75;5081139;28;20436;-80
2024/02/28 05:42:11;;;;;;;32.35;17.05;;;;;;;0.71;100.00;101368.56;5068413;28;20948;-80
2024/02/28 05:44:44;;;;;;;29.47;15.97;;;;;;;0.71;100.00;101370.44;5085010;28;20515;-80
2024/02/28 05:47:17;;;;;;;29.30;15.68;;;;;;;0.68;100.00;101375.16;5077328;28;20425;-80
2024/02/28 05:49:50;;;;;;;30.77;16.20;;;;;;;0.60;100.00;101380.66;5061353;28;20470;-80
2024/02/28 05:52:25;;;;;;;30.17;15.63;;;;;;;0.68;100.00;101377.00;5074411;28;20435;-80
2024/02/28 05:54:58;;;;;;;28.90;15.70;;;;;;;0.61;100.00;101382.31;5081024;28;20413;-80
2024/02/28 05:57:32;;;;;;;27.52;14.68;;;;;;;0.61;100.00;101382.31;5079628;28;20498;-80
2024/02/28 06:00:09;;;;;;;27.65;14.70;;;;;;;0.56;100.00;101374.03;5070126;28;20429;-80
2024/02/28 06:02:42;;;;;;;27.90;14.27;;;;;;;0.62;100.00;101378.63;5055262;28;20431;-79
2024/02/28 06:05:11;;;;;;;26.90;14.10;;;;;;;0.65;100.00;101386.25;5079602;28;20442;-80
2024/02/28 06:07:44;;;;;;;27.77;14.48;;;;;;;0.60;100.00;101391.38;5081090;28;20442;-80
2024/02/28 06:10:17;;;;;;;27.15;14.93;;;;;;;0.53;100.00;101389.69;5057000;28;20433;-79
2024/02/28 06:12:52;;;;;;;27.02;13.57;;;;;;;0.49;100.00;101386.56;5076010;28;20421;-80
2024/02/28 06:15:27;;;;;;;26.00;14.05;;;;;;;0.52;100.00;101388.84;5079765;28;20430;-79
2024/02/28 06:18:01;;;;;;;25.67;13.57;;;;;;;0.52;100.00;101393.38;5079316;28;20452;-80
2024/02/28 06:20:29;;;;;;;26.60;14.23;;;;;;;0.55;100.00;101390.31;5081841;28;20415;-80
2024/02/28 06:23:02;;;;;;;27.02;13.95;;;;;;;0.56;100.00;101394.66;5061788;28;20429;-79
2024/02/28 06:25:33;;;;;;;26.70;13.35;;;;;;;0.59;100.00;101391.56;5069049;28;20420;-81
2024/02/28 06:28:09;;;;;;;25.50;13.68;;;;;;;0.61;100.00;101389.53;5079316;28;20422;-80
2024/02/28 06:30:43;;;;;;;26.55;14.45;;;;;;;0.67;100.00;101396.78;5045711;28;20903;-80
2024/02/28 06:33:11;;;;;;;26.88;14.02;;;;;;;0.68;100.00;101403.81;5074497;28;21068;-81
2024/02/28 06:35:45;;;;;;;26.37;13.70;;;;;;;0.70;100.00;101403.59;5058764;28;20459;-80
2024/02/28 06:38:13;;;;;;;25.83;14.13;;;;;;;0.67;100.00;101402.97;5057475;28;20421;-81
2024/02/28 06:40:46;;;;;;;26.87;13.90;;;;;;;0.70;100.00;101411.63;5080148;28;20509;-81
2024/02/28 06:43:20;;;;;;;27.15;13.88;;;;;;;0.71;100.00;101406.09;5067216;28;20805;-80
2024/02/28 06:45:49;;;;;;;25.42;13.38;;;;;;;0.78;100.00;101412.31;5065640;28;20889;-81
2024/02/28 06:48:22;;;;;;;24.38;13.23;;;;;;;0.80;100.00;101421.00;5066622;28;20769;-81
2024/02/28 06:50:55;;;;;;;26.98;13.90;;;;;;;0.70;100.00;101425.84;5058795;28;20921;-80
2024/02/28 06:53:23;;;;;;;26.53;13.50;;;;;;;0.80;100.00;101431.72;5060745;28;20483;-81
2024/02/28 06:55:52;;;;;;;28.33;14.15;;;;;;;0.84;100.00;101434.81;5077427;28;20448;-80
2024/02/28 06:58:23;;;;;;;24.27;12.75;;;;;;;0.85;100.00;101433.78;5077341;28;20413;-81
2024/02/28 07:00:51;;;;;;;24.55;12.73;;;;;;;0.91;100.00;101429.50;5076905;28;20445;-81
2024/02/28 07:03:24;;;;;;;24.30;12.95;;;;;;;1.06;100.00;101432.88;5066859;28;20433;-81
2024/02/28 07:05:58;;;;;;;24.10;12.43;;;;;;;1.04;100.00;101439.44;5070003;28;20418;-81
2024/02/28 07:08:26;;;;;;;22.60;12.20;;;;;;;1.12;100.00;101441.97;5078722;28;20431;-81
2024/02/28 07:10:54;;;;;;;23.40;13.07;;;;;;;1.15;100.00;101437.06;5058234;28;21112;-81
2024/02/28 07:13:29;;;;;;;22.95;12.32;;;;;;;1.22;100.00;101433.59;5057199;28;20775;-81
2024/02/28 07:16:02;;;;;;;24.02;12.60;;;;;;;1.29;100.00;101450.53;5062384;28;20434;-81
2024/02/28 07:18:35;;;;;;;25.13;12.30;;;;;;;1.34;100.00;101440.84;5064634;28;21096;-80
2024/02/28 07:21:09;;;;;;;25.08;12.98;;;;;;;1.47;100.00;101441.94;5071488;28;20462;-81
2024/02/28 07:23:40;;;;;;;24.70;13.50;;;;;;;1.39;100.00;101448.28;5059034;28;20441;-81
2024/02/28 07:26:08;;;;;;;28.33;13.43;;;;;;;1.40;100.00;101444.59;5065594;28;20426;-81
2024/02/28 07:28:42;;;;;;;23.40;12.48;;;;;;;1.45;100.00;101449.34;5079526;28;21328;-80
2024/02/28 07:31:16;;;;;;;24.15;12.13;;;;;;;1.46;100.00;101446.47;5060222;28;20447;-81
2024/02/28 07:33:49;;;;;;;24.38;12.75;;;;;;;1.49;100.00;101454.13;5078992;28;20886;-81
2024/02/28 07:36:22;;;;;;;25.40;12.88;;;;;;;1.42;100.00;101453.25;5074704;28;20806;-81
2024/02/28 07:38:56;;;;;;;23.73;12.65;;;;;;;1.38;100.00;101457.34;5058134;28;20440;-81
2024/02/28 07:41:25;;;;;;;23.77;13.00;;;;;;;1.38;100.00;101462.72;5061532;28;20418;-81
2024/02/28 07:43:54;;;;;;;23.02;12.35;;;;;;;1.35;100.00;101466.66;5065038;28;20433;-81
2024/02/28 07:46:28;;;;;;;22.70;12.40;;;;;;;1.42;100.00;101457.81;5075373;28;20438;-81
2024/02/28 07:49:01;;;;;;;24.83;12.35;;;;;;;1.46;100.00;101451.00;5056055;28;20772;-81
2024/02/28 07:51:34;;;;;;;24.90;12.48;;;;;;;1.59;100.00;101455.59;5080241;28;20912;-80
2024/02/28 07:54:09;;;;;;;23.57;12.57;;;;;;;1.70;100.00;101447.81;5076374;28;20742;-81
2024/02/28 07:56:42;;;;;;;24.05;12.07;;;;;;;1.52;100.00;101445.69;5060312;28;20434;-81
2024/02/28 07:59:17;;;;;;;22.67;12.00;;;;;;;1.70;100.00;101446.97;5061623;28;20430;-80
2024/02/28 08:01:52;;;;;;;25.03;12.30;;;;;;;1.80;100.00;101442.03;5077371;28;20431;-80
2024/02/28 08:04:25;;;;;;;23.05;11.85;;;;;;;1.80;100.00;101438.53;5059425;28;20426;-81
2024/02/28 08:06:59;;;;;;;22.85;12.18;;;;;;;1.84;100.00;101437.94;5073797;28;20423;-81
2024/02/28 08:09:27;;;;;;;23.90;12.23;;;;;;;1.90;100.00;101446.22;5077480;28;20432;-80
2024/02/28 08:11:55;;;;;;;22.45;11.98;;;;;;;1.94;100.00;101445.59;5078440;28;21229;-81
2024/02/28 08:14:25;;;;;;;22.15;11.70;;;;;;;2.13;100.00;101445.84;5065685;28;20844;-80
2024/02/28 08:16:59;;;;;;;26.90;12.27;;;;;;;2.12;100.00;101447.69;5076682;28;20422;-81
2024/02/28 08:19:27;;;;;;;21.27;11.23;;;;;;;2.11;100.00;101455.94;5053749;28;20430;-80
2024/02/28 08:21:55;;;;;;;21.77;12.02;;;;;;;1.95;100.00;101457.97;5058699;28;20450;-80
2024/02/28 08:24:28;;;;;;;22.70;11.90;;;;;;;1.89;100.00;101455.28;5062731;28;20435;-80
2024/02/28 08:27:02;;;;;;;22.83;11.88;;;;;;;1.83;100.00;101460.41;5062664;28;20410;-84
2024/02/28 08:29:35;;;;;;;21.00;11.35;;;;;;;1.87;100.00;101458.97;5056519;28;20843;-80
2024/02/28 08:32:04;;;;;;;20.92;11.40;;;;;;;1.87;100.00;101467.03;5052109;28;20432;-82
2024/02/28 08:34:40;;;;;;;22.23;10.98;;;;;;;1.87;100.00;101463.53;5069640;28;20421;-81
2024/02/28 08:37:18;;;;;;;20.98;11.10;;;;;;;1.91;100.00;101467.47;5077499;28;20424;-81
2024/02/28 08:39:47;;;;;;;21.38;11.30;;;;;;;1.89;100.00;101466.84;5053117;28;20431;-81
2024/02/28 08:42:15;;;;;;;20.45;11.27;;;;;;;1.85;100.00;101465.59;5070978;28;20494;-82
2024/02/28 08:44:50;;;;;;;21.67;11.60;;;;;;;1.99;100.00;101461.91;5045858;28;20442;-81
2024/02/28 08:47:24;;;;;;;21.65;11.52;;;;;;;1.94;100.00;101472.44;5074027;28;20420;-81
2024/02/28 08:49:57;;;;;;;21.23;11.47;;;;;;;1.99;100.00;101469.13;5074541;28;20511;-81
2024/02/28 08:52:25;;;;;;;20.60;11.00;;;;;;;2.20;100.00;101465.47;5076081;28;20772;-81
2024/02/28 08:54:54;;;;;;;21.00;11.45;;;;;;;2.45;100.00;101459.50;5057470;28;20433;-81
2024/02/28 08:57:23;;;;;;;21.90;11.43;;;;;;;2.69;100.00;101463.41;5058676;28;20541;-82
2024/02/28 08:59:58;;;;;;;19.30;10.63;;;;;;;2.84;100.00;101466.69;5048085;28;20422;-84
2024/02/28 09:02:26;;;;;;;21.90;11.27;;;;;;;2.82;100.00;101473.34;5055032;28;20455;-81
2024/02/28 09:04:56;;;;;;;20.90;10.98;;;;;;;2.87;100.00;101474.38;5043070;28;21476;-81
2024/02/28 09:07:30;;;;;;;19.08;11.18;;;;;;;2.88;100.00;101472.50;5059460;28;20419;-81
2024/02/28 09:10:07;;;;;;;21.20;11.45;;;;;;;3.10;100.00;101470.38;5035605;28;20430;-82
2024/02/28 09:12:35;;;;;;;22.20;11.43;;;;;;;3.15;100.00;101470.59;5049080;28;20960;-81
2024/02/28 09:15:10;;;;;;;21.40;11.20;;;;;;;3.18;100.00;101466.66;5044381;28;20426;-81
2024/02/28 09:17:44;;;;;;;22.83;12.07;;;;;;;3.22;100.00;101468.69;5062063;28;20448;-81
2024/02/28 09:20:17;;;;;;;21.35;11.77;;;;;;;3.32;100.00;101459.38;5063143;28;20429;-81
2024/02/28 09:22:51;;;;;;;23.15;12.07;;;;;;;3.18;100.00;101462.09;5062308;28;20456;-81
2024/02/28 09:25:24;;;;;;;26.58;13.07;;;;;;;3.27;100.00;101464.53;5044613;28;20433;-82
2024/02/28 09:27:52;;;;;;;22.07;12.40;;;;;;;3.36;100.00;101471.34;5042730;28;20508;-81
2024/02/28 09:30:27;;;;;;;26.27;12.90;;;;;;;3.51;100.00;101471.09;5062321;28;20438;-81
2024/02/28 09:33:00;;;;;;;24.13;12.55;;;;;;;3.63;100.00;101482.81;5040313;28;20429;-82
2024/02/28 09:35:41;;;;;;;23.92;12.73;;;;;;;3.80;100.00;101469.72;5043537;28;20966;-81
2024/02/28 09:38:10;;;;;;;25.63;13.13;;;;;;;3.73;100.00;101474.31;5058803;28;20972;-81
2024/02/28 09:40:47;;;;;;;24.10;13.18;;;;;;;3.75;100.00;101470.34;5039773;28;20430;-81
2024/02/28 09:43:29;;;;;;;26.35;13.68;;;;;;;3.58;100.00;101471.88;5041353;28;20426;-81
2024/02/28 09:46:05;;;;;;;25.42;13.57;;;;;;;3.66;100.00;101481.56;5043194;28;21707;-81
2024/02/28 09:48:40;;;;;;;24.92;12.70;;;;;;;3.78;100.00;101479.03;5036888;28;20434;-81
2024/02/28 09:51:15;;;;;;;25.25;13.23;;;;;;;3.69;100.00;101486.56;5059252;28;20438;-81
2024/02/28 09:53:48;;;;;;;24.95;13.05;;;;;;;3.64;100.00;101484.47;5057524;28;20910;-81
2024/02/28 09:56:24;;;;;;;24.70;13.13;;;;;;;3.87;100.00;101486.66;5035271;28;20418;-81
2024/02/28 09:58:59;;;;;;;26.15;13.45;;;;;;;4.21;100.00;101487.31;5031178;28;22399;-81
2024/02/28 10:01:29;;;;;;;26.08;13.52;;;;;;;4.12;100.00;101485.91;5036373;28;20434;-81
2024/02/28 10:03:58;;;;;;;25.60;13.55;;;;;;;4.20;100.00;101482.94;5056577;28;20448;-81
2024/02/28 10:06:32;;;;;;;25.50;13.52;;;;;;;4.15;100.00;101479.25;5053308;28;20429;-82
2024/02/28 10:09:00;;;;;;;27.08;13.43;;;;;;;4.18;100.00;101482.31;5042754;28;20425;-81
2024/02/28 10:11:35;;;;;;;26.25;13.23;;;;;;;4.47;100.00;101480.06;5053464;28;20430;-81
2024/02/28 10:14:03;;;;;;;28.52;14.00;;;;;;;4.59;100.00;101483.69;5040440;28;20456;-80
2024/02/28 10:16:38;;;;;;;26.63;14.35;;;;;;;4.63;100.00;101489.47;5039750;28;20456;-80
2024/02/28 10:19:12;;;;;;;24.20;13.57;;;;;;;4.44;100.00;101488.59;5046884;28;20433;-81
2024/02/28 10:21:47;;;;;;;25.02;13.60;;;;;;;4.64;100.00;101493.84;5056719;28;20436;-81
2024/02/28 10:24:24;;;;;;;24.73;13.73;;;;;;;4.72;100.00;101495.41;5068022;28;20430;-81
2024/02/28 10:27:02;;;;;;;26.13;13.30;;;;;;;4.63;100.00;101497.56;5058203;28;20425;-81
2024/02/28 10:29:35;;;;;;;26.23;13.87;;;;;;;4.66;100.00;101501.69;5062718;28;20420;-81
2024/02/28 10:32:10;;;;;;;25.08;13.48;;;;;;;4.67;100.00;101501.47;5055252;28;20433;-81
2024/02/28 10:34:44;;;;;;;24.15;12.63;;;;;;;4.75;100.00;101497.66;5040381;28;20425;-81
2024/02/28 10:37:13;;;;;;;24.17;13.70;;;;;;;4.56;100.00;101494.91;5034668;28;20465;-81
2024/02/28 10:39:48;;;;;;;24.85;13.35;;;;;;;4.43;100.00;101500.41;5059795;28;20431;-81
2024/02/28 10:42:17;;;;;;;24.52;13.13;;;;;;;4.40;100.00;101503.53;5043419;28;20418;-81
2024/02/28 10:44:52;;;;;;;25.70;13.55;;;;;;;4.49;100.00;101502.22;5039694;28;20441;-82
2024/02/28 10:47:27;;;;;;;25.05;13.32;;;;;;;4.55;100.00;101504.03;5056252;28;20438;-81
2024/02/28 10:50:01;;;;;;;30.67;13.60;;;;;;;4.81;100.00;101517.53;5056792;28;21136;-81
2024/02/28 10:52:39;;;;;;;23.38;12.95;;;;;;;5.02;100.00;101516.31;5043411;28;20439;-81
2024/02/28 10:55:10;;;;;;;23.38;12.73;;;;;;;5.18;100.00;101510.34;5059463;28;20426;-81
2024/02/28 10:57:43;;;;;;;24.80;13.20;;;;;;;5.08;100.00;101508.16;5049033;28;20445;-81
2024/02/28 11:00:16;;;;;;;26.52;13.75;;;;;;;4.99;100.00;101498.69;5034319;28;20418;-82
2024/02/28 11:02:46;;;;;;;24.17;12.95;;;;;;;5.16;100.00;101507.03;5045206;28;20439;-81
2024/02/28 11:05:14;;;;;;;26.65;13.50;;;;;;;5.08;100.00;101500.06;5044609;28;20434;-81
2024/02/28 11:07:43;;;;;;;25.80;13.48;;;;;;;4.96;100.00;101493.75;5064741;28;20429;-81
2024/02/28 11:10:13;;;;;;;24.05;13.57;;;;;;;5.08;100.00;101496.53;5037261;28;20441;-81
2024/02/28 11:12:55;;;;;;;25.35;13.57;;;;;;;5.24;100.00;101506.75;5056765;28;21185;-82
2024/02/28 11:15:28;;;;;;;25.77;13.40;;;;;;;5.41;100.00;101500.75;5052991;28;20448;-81
2024/02/28 11:18:10;;;;;;;26.27;13.23;;;;;;;5.49;100.00;101510.44;5041827;28;20452;-81
2024/02/28 11:20:44;;;;;;;26.23;13.85;;;;;;;5.70;100.00;101509.94;5042490;28;20441;-81
2024/02/28 11:23:14;;;;;;;26.02;13.75;;;;;;;5.81;100.00;101499.44;5039149;28;20454;-81
2024/02/28 11:25:42;;;;;;;26.17;13.90;;;;;;;5.83;100.00;101500.03;5057842;28;21084;-81
2024/02/28 11:28:16;;;;;;;24.90;13.60;;;;;;;5.76;100.00;101500.97;5055728;28;20566;-81
2024/02/28 11:30:50;;;;;;;25.10;13.88;;;;;;;5.93;100.00;101509.25;5063089;28;20429;-80
2024/02/28 11:33:19;;;;;;;24.52;14.07;;;;;;;5.96;100.00;101508.78;5062071;28;20429;-80